createdAt,value
2022-08-10T00:01:37.700Z,2.03
2022-08-10T00:04:05.306Z,1.52
2022-08-10T00:06:32.539Z,1.65
2022-08-10T00:08:59.536Z,1.52
2022-08-10T00:11:26.702Z,2.00
2022-08-10T00:13:53.616Z,1.95
2022-08-10T00:16:20.524Z,2.03
2022-08-10T00:18:47.444Z,1.90
2022-08-10T00:21:14.343Z,1.67
2022-08-10T00:23:41.360Z,1.75
2022-08-10T00:26:08.246Z,1.52
2022-08-10T00:28:35.180Z,1.90
2022-08-10T00:31:02.185Z,1.85
2022-08-10T00:33:29.112Z,1.63
2022-08-10T00:35:56.008Z,2.08
2022-08-10T00:38:23.192Z,1.95
2022-08-10T00:40:50.320Z,1.95
2022-08-10T00:43:23.756Z,1.33
2022-08-10T00:45:59.773Z,2.05
2022-08-10T00:48:30.945Z,1.80
2022-08-10T00:51:01.853Z,2.05
2022-08-10T00:53:29.958Z,1.63
2022-08-10T00:57:14.168Z,1.70
2022-08-10T00:58:56.800Z,1.83
2022-08-10T01:02:10.045Z,1.60
2022-08-10T01:04:57.984Z,1.30
2022-08-10T01:07:18.310Z,1.92
2022-08-10T01:10:21.339Z,1.75
2022-08-10T01:13:07.037Z,1.77
2022-08-10T01:15:39.512Z,2.30
2022-08-10T01:18:17.279Z,1.70
2022-08-10T01:21:24.455Z,2.13
2022-08-10T01:24:29.490Z,1.60
2022-08-10T01:27:05.227Z,2.13
2022-08-10T01:29:35.080Z,1.73
2022-08-10T01:32:07.255Z,1.75
2022-08-10T01:35:10.691Z,1.70
2022-08-10T01:37:52.032Z,1.90
2022-08-10T01:40:25.887Z,1.55
2022-08-10T01:43:07.767Z,2.00
2022-08-10T01:45:44.533Z,2.70
2022-08-10T01:48:29.100Z,2.00
2022-08-10T01:53:47.351Z,1.95
2022-08-10T01:56:16.993Z,2.05
2022-08-10T01:58:47.129Z,2.10
2022-08-10T02:01:39.612Z,1.55
2022-08-10T02:04:10.984Z,1.67
2022-08-10T02:06:43.356Z,2.50
2022-08-10T02:09:15.952Z,2.00
2022-08-10T02:12:05.818Z,2.70
2022-08-10T02:14:42.205Z,1.90
2022-08-10T02:17:59.291Z,2.05
2022-08-10T02:20:20.908Z,1.45
2022-08-10T02:22:53.472Z,1.27
2022-08-10T02:25:42.566Z,1.92
2022-08-10T02:28:11.381Z,1.80
2022-08-10T02:30:39.031Z,2.03
2022-08-10T02:33:06.775Z,1.67
2022-08-10T02:35:54.397Z,1.67
2022-08-10T02:38:58.124Z,2.80
2022-08-10T02:45:13.777Z,2.00
2022-08-10T02:45:15.406Z,2.10
2022-08-10T02:47:52.332Z,2.25
2022-08-10T02:50:51.361Z,1.77
2022-08-10T02:53:54.934Z,2.13
2022-08-10T02:56:43.716Z,1.65
2022-08-10T02:59:40.363Z,2.55
2022-08-10T03:02:13.977Z,2.05
2022-08-10T03:04:55.830Z,2.00
2022-08-10T03:07:43.416Z,2.15
2022-08-10T03:10:19.946Z,2.20
2022-08-10T03:12:52.373Z,2.03
2022-08-10T03:15:22.195Z,1.98
2022-08-10T03:17:57.813Z,1.63
2022-08-10T03:20:38.118Z,1.50
2022-08-10T03:23:18.313Z,2.33
2022-08-10T03:25:54.397Z,2.65
2022-08-10T03:28:26.223Z,1.85
2022-08-10T03:30:54.807Z,2.45
2022-08-10T03:33:23.552Z,1.90
2022-08-10T03:36:42.733Z,2.15
2022-08-10T03:38:40.907Z,2.10
2022-08-10T03:41:16.095Z,2.00
2022-08-10T03:43:48.085Z,2.38
2022-08-10T03:46:20.284Z,2.28
2022-08-10T03:48:50.380Z,2.22
2022-08-10T03:51:18.989Z,2.40
2022-08-10T03:54:06.042Z,2.38
2022-08-10T03:56:38.550Z,1.92
2022-08-10T03:59:12.535Z,2.42
2022-08-10T04:02:52.387Z,2.30
2022-08-10T04:04:28.961Z,2.35
2022-08-10T04:06:59.035Z,2.03
2022-08-10T04:09:43.404Z,2.20
2022-08-10T04:12:19.697Z,1.98
2022-08-10T04:14:50.419Z,3.03
2022-08-10T04:18:05.019Z,2.25
2022-08-10T04:20:17.580Z,2.28
2022-08-10T04:22:47.703Z,1.90
2022-08-10T04:25:15.658Z,2.25
2022-08-10T04:27:43.533Z,1.92
2022-08-10T04:30:11.076Z,2.40
2022-08-10T04:32:38.256Z,2.33
2022-08-10T04:35:07.596Z,1.90
2022-08-10T04:37:37.473Z,2.08
2022-08-10T04:40:30.437Z,1.80
2022-08-10T04:43:11.280Z,2.22
2022-08-10T04:45:48.328Z,3.13
2022-08-10T04:48:40.138Z,2.53
2022-08-10T04:51:18.511Z,2.78
2022-08-10T04:54:05.184Z,2.65
2022-08-10T04:56:36.593Z,2.92
2022-08-10T04:59:07.136Z,2.83
2022-08-10T05:02:21.263Z,2.85
2022-08-10T05:04:36.731Z,2.03
2022-08-10T05:07:11.123Z,3.00
2022-08-10T05:10:03.402Z,2.53
2022-08-10T05:12:30.862Z,2.22
2022-08-10T05:14:58.837Z,2.45
2022-08-10T05:17:26.334Z,2.03
2022-08-10T05:20:01.688Z,2.53
2022-08-10T05:22:32.955Z,2.67
2022-08-10T05:24:59.831Z,2.63
2022-08-10T05:27:26.696Z,2.60
2022-08-10T05:30:02.515Z,2.55
2022-08-10T05:32:32.374Z,2.42
2022-08-10T05:35:01.439Z,2.55
2022-08-10T05:38:10.374Z,3.15
2022-08-10T05:40:22.199Z,2.30
2022-08-10T05:42:49.337Z,2.55
2022-08-10T05:45:26.891Z,2.58
2022-08-10T05:48:55.362Z,3.78
2022-08-10T05:50:42.082Z,4.18
2022-08-10T05:53:23.134Z,3.85
2022-08-10T05:55:56.623Z,3.28
2022-08-10T05:58:23.630Z,3.45
2022-08-10T06:00:54.725Z,3.35
2022-08-10T06:03:28.620Z,3.58
2022-08-10T06:05:59.185Z,4.95
2022-08-10T06:08:31.747Z,3.70
2022-08-10T06:12:28.683Z,4.25
2022-08-10T06:14:13.857Z,3.83
2022-08-10T06:16:54.443Z,3.92
2022-08-10T06:19:21.906Z,3.30
2022-08-10T06:21:54.926Z,3.08
2022-08-10T06:24:31.158Z,3.42
2022-08-10T06:26:59.829Z,2.67
2022-08-10T06:29:30.039Z,3.13
2022-08-10T06:31:57.804Z,3.08
2022-08-10T06:34:28.926Z,2.80
2022-08-10T06:37:00.676Z,3.05
2022-08-10T06:39:34.827Z,2.70
2022-08-10T06:42:15.756Z,3.13
2022-08-10T06:45:06.579Z,2.30
2022-08-10T06:47:47.686Z,2.40
2022-08-10T06:50:56.395Z,2.20
2022-08-10T06:53:52.929Z,2.33
2022-08-10T06:56:37.442Z,2.40
2022-08-10T06:59:40.559Z,2.15
2022-08-10T07:02:16.245Z,1.70
2022-08-10T07:05:04.485Z,1.73
2022-08-10T07:07:37.708Z,1.92
2022-08-10T07:10:10.868Z,1.48
2022-08-10T07:12:40.109Z,1.85
2022-08-10T07:15:09.344Z,1.75
2022-08-10T07:17:39.431Z,1.92
2022-08-10T07:20:21.774Z,1.85
2022-08-10T07:23:26.984Z,2.03
2022-08-10T07:25:40.536Z,1.48
2022-08-10T07:28:08.635Z,1.20
2022-08-10T07:30:41.436Z,1.55
2022-08-10T07:33:09.975Z,1.42
2022-08-10T07:35:41.902Z,1.73
2022-08-10T07:38:17.279Z,1.60
2022-08-10T07:40:45.741Z,1.67
2022-08-10T07:43:13.894Z,1.42
2022-08-10T07:45:41.173Z,1.58
2022-08-10T07:48:16.092Z,1.10
2022-08-10T07:50:45.036Z,1.70
2022-08-10T07:53:19.691Z,1.02
2022-08-10T07:56:04.417Z,1.30
2022-08-10T07:58:52.082Z,1.50
2022-08-10T08:01:24.510Z,1.40
2022-08-10T08:04:10.840Z,1.23
2022-08-10T08:06:41.223Z,1.38
2022-08-10T08:09:09.703Z,1.65
2022-08-10T08:11:39.008Z,1.65
2022-08-10T08:14:09.422Z,1.00
2022-08-10T08:16:40.712Z,1.17
2022-08-10T08:24:09.604Z,1.27
2022-08-10T08:24:44.554Z,1.25
2022-08-10T08:27:16.881Z,1.60
2022-08-10T08:29:47.284Z,1.17
2022-08-10T08:32:22.326Z,1.23
2022-08-10T08:34:54.843Z,1.20
2022-08-10T08:38:31.551Z,1.10
2022-08-10T08:40:19.831Z,1.17
2022-08-10T08:43:40.323Z,1.20
2022-08-10T08:48:02.050Z,1.00
2022-08-10T08:50:59.558Z,1.00
2022-08-10T08:54:03.620Z,1.15
2022-08-10T08:56:59.999Z,1.67
2022-08-10T09:00:17.887Z,0.98
2022-08-10T09:02:55.747Z,1.10
2022-08-10T09:06:00.308Z,1.42
2022-08-10T09:09:15.646Z,1.50
2022-08-10T09:12:30.821Z,0.80
2022-08-10T09:15:08.527Z,1.38
2022-08-10T09:17:58.506Z,1.98
2022-08-10T09:20:40.829Z,1.10
2022-08-10T09:24:04.955Z,1.08
2022-08-10T09:26:23.860Z,0.90
2022-08-10T09:29:12.381Z,1.10
2022-08-10T09:31:55.904Z,0.80
2022-08-10T09:36:22.795Z,1.05
2022-08-10T09:38:21.898Z,1.00
2022-08-10T09:41:31.651Z,1.00
2022-08-10T09:44:27.244Z,0.85
2022-08-10T09:47:58.811Z,1.15
2022-08-10T09:51:22.677Z,1.23
2022-08-10T09:54:31.628Z,1.35
2022-08-10T09:57:44.016Z,1.00
2022-08-10T10:00:15.164Z,1.00
2022-08-10T10:03:36.528Z,1.35
2022-08-10T10:06:19.804Z,1.17
2022-08-10T10:12:14.668Z,0.88
2022-08-10T10:15:24.843Z,1.00
2022-08-10T10:18:39.622Z,0.90
2022-08-10T10:21:56.061Z,1.15
2022-08-10T10:24:46.293Z,1.67
2022-08-10T10:27:48.068Z,0.98
2022-08-10T10:30:17.458Z,0.90
2022-08-10T10:33:08.663Z,1.00
2022-08-10T10:35:55.275Z,1.00
2022-08-10T10:38:29.343Z,1.13
2022-08-10T10:41:04.596Z,1.17
2022-08-10T10:43:54.149Z,0.82
2022-08-10T10:47:11.862Z,1.20
2022-08-10T10:49:55.129Z,1.05
2022-08-10T10:56:15.155Z,0.90
2022-08-10T10:59:57.608Z,0.80
2022-08-10T11:03:01.861Z,1.25
2022-08-10T11:05:50.549Z,0.95
2022-08-10T11:08:29.235Z,0.90
2022-08-10T11:11:20.434Z,0.75
2022-08-10T11:14:29.540Z,0.60
2022-08-10T11:17:05.974Z,0.93
2022-08-10T11:20:06.082Z,0.60
2022-08-10T11:22:53.719Z,1.10
2022-08-10T11:25:37.499Z,0.98
2022-08-10T11:28:21.205Z,0.80
2022-08-10T11:31:16.002Z,0.70
2022-08-10T11:34:04.156Z,0.70
2022-08-10T11:37:30.335Z,0.88
2022-08-10T11:40:58.129Z,0.63
2022-08-10T11:43:46.943Z,0.95
2022-08-10T11:46:31.227Z,0.90
2022-08-10T11:49:18.536Z,0.68
2022-08-10T11:51:52.541Z,1.27
2022-08-10T11:54:51.673Z,0.90
2022-08-10T11:57:19.611Z,0.95
2022-08-10T11:59:57.968Z,1.08
2022-08-10T12:02:46.432Z,0.88
2022-08-10T12:05:51.559Z,0.82
2022-08-10T12:10:03.449Z,1.45
2022-08-10T12:11:09.704Z,0.75
2022-08-10T12:14:10.637Z,0.90
2022-08-10T12:16:41.353Z,0.77
2022-08-10T12:19:21.235Z,0.70
2022-08-10T12:22:06.287Z,1.02
2022-08-10T12:24:58.337Z,0.80
2022-08-10T12:27:51.074Z,0.73
2022-08-10T12:30:26.919Z,1.00
2022-08-10T12:33:08.035Z,1.20
2022-08-10T12:36:19.086Z,1.10
2022-08-10T12:39:05.411Z,0.80
2022-08-10T12:42:07.027Z,0.82
2022-08-10T12:44:48.874Z,1.00
2022-08-10T12:47:52.361Z,0.80
2022-08-10T12:50:56.584Z,0.60
2022-08-10T12:53:48.632Z,0.80
2022-08-10T12:56:26.658Z,0.90
2022-08-10T12:59:01.859Z,1.15
2022-08-10T13:02:07.837Z,0.50
2022-08-10T13:04:40.689Z,0.85
2022-08-10T13:07:09.500Z,0.70
2022-08-10T13:09:56.267Z,0.70
2022-08-10T13:12:35.580Z,0.60
2022-08-10T13:15:47.688Z,1.13
2022-08-10T13:18:02.020Z,0.70
2022-08-10T13:20:34.908Z,0.60
2022-08-10T13:26:25.555Z,0.50
2022-08-10T13:28:56.199Z,1.02
2022-08-10T13:32:04.370Z,0.80
2022-08-10T13:35:39.504Z,0.70
2022-08-10T13:38:09.827Z,0.50
2022-08-10T13:40:38.715Z,0.70
2022-08-10T13:45:49.996Z,0.85
2022-08-10T13:48:24.482Z,0.70
2022-08-10T13:50:57.463Z,0.82
2022-08-10T13:53:31.385Z,0.88
2022-08-10T13:55:59.863Z,1.25
2022-08-10T13:58:37.174Z,0.82
2022-08-10T14:01:18.502Z,1.05
2022-08-10T14:03:47.235Z,0.80
2022-08-10T14:06:16.290Z,0.65
2022-08-10T14:08:52.418Z,0.77
2022-08-10T14:11:21.591Z,0.65
2022-08-10T14:13:59.517Z,0.80
2022-08-10T14:16:26.957Z,0.95
2022-08-10T14:18:58.267Z,0.88
2022-08-10T14:21:25.530Z,0.70
2022-08-10T14:23:53.792Z,0.60
2022-08-10T14:26:28.959Z,0.90
2022-08-10T14:29:07.271Z,0.73
2022-08-10T14:31:37.248Z,0.90
2022-08-10T14:34:09.071Z,0.68
2022-08-10T14:37:03.787Z,1.10
2022-08-10T14:40:02.184Z,0.85
2022-08-10T14:42:37.652Z,0.60
2022-08-10T14:48:21.288Z,0.85
2022-08-10T14:50:55.291Z,0.60
2022-08-10T14:53:26.652Z,0.77
2022-08-10T14:56:00.802Z,0.50
2022-08-10T14:58:59.071Z,0.90
2022-08-10T15:02:01.014Z,0.93
2022-08-10T15:04:23.831Z,0.75
2022-08-10T15:07:02.624Z,1.42
2022-08-10T15:09:59.248Z,0.90
2022-08-10T15:12:26.522Z,0.82
2022-08-10T15:14:55.490Z,0.90
2022-08-10T15:17:35.071Z,0.65
2022-08-10T15:20:14.911Z,0.85
2022-08-10T15:22:50.253Z,0.52
2022-08-10T15:25:24.991Z,0.70
2022-08-10T15:28:13.580Z,0.90
2022-08-10T15:30:48.690Z,0.50
2022-08-10T15:34:03.686Z,0.80
2022-08-10T15:37:36.930Z,0.50
2022-08-10T15:40:24.761Z,0.60
2022-08-10T15:42:53.059Z,0.55
2022-08-10T15:45:20.173Z,0.50
2022-08-10T15:48:03.233Z,0.70
2022-08-10T15:50:58.792Z,0.40
2022-08-10T15:53:49.909Z,0.70
2022-08-10T15:56:28.945Z,0.47
2022-08-10T15:59:12.351Z,1.17
2022-08-10T16:02:12.566Z,0.75
2022-08-10T16:04:56.204Z,0.60
2022-08-10T16:07:42.865Z,0.50
2022-08-10T16:10:28.022Z,1.23
2022-08-10T16:13:50.684Z,0.60
2022-08-10T16:15:57.272Z,0.60
2022-08-10T16:18:30.301Z,0.50
2022-08-10T16:21:01.405Z,0.80
2022-08-10T16:23:42.901Z,0.50
2022-08-10T16:26:17.444Z,1.05
2022-08-10T16:28:51.370Z,0.75
2022-08-10T16:31:22.822Z,0.75
2022-08-10T16:33:54.911Z,0.93
2022-08-10T16:36:31.614Z,0.65
2022-08-10T16:38:59.930Z,0.80
2022-08-10T16:42:02.793Z,1.13
2022-08-10T16:44:21.083Z,1.23
2022-08-10T16:46:48.808Z,1.20
2022-08-10T16:49:18.228Z,0.75
2022-08-10T16:51:49.342Z,0.70
2022-08-10T16:54:27.092Z,0.70
2022-08-10T16:57:05.306Z,0.80
2022-08-10T16:59:38.521Z,1.20
2022-08-10T17:02:06.970Z,0.65
2022-08-10T17:04:36.525Z,0.73
2022-08-10T17:07:14.368Z,0.90
2022-08-10T17:09:48.475Z,0.65
2022-08-10T17:12:23.301Z,0.75
2022-08-10T17:15:09.405Z,0.70
2022-08-10T17:17:46.829Z,0.90
2022-08-10T17:20:31.541Z,0.75
2022-08-10T17:23:04.969Z,0.75
2022-08-10T17:25:51.007Z,0.68
2022-08-10T17:28:34.853Z,0.90
2022-08-10T17:31:42.218Z,0.90
2022-08-10T17:34:16.338Z,0.68
2022-08-10T17:36:50.331Z,0.75
2022-08-10T17:39:22.893Z,1.00
2022-08-10T17:41:52.654Z,0.73
2022-08-10T17:44:20.093Z,0.70
2022-08-10T17:46:47.292Z,0.73
2022-08-10T17:49:16.589Z,0.70
2022-08-10T17:51:53.898Z,0.73
2022-08-10T17:54:41.421Z,0.55
2022-08-10T17:57:21.237Z,0.95
2022-08-10T17:59:51.781Z,0.77
2022-08-10T18:02:25.457Z,0.88
2022-08-10T18:04:56.788Z,0.82
2022-08-10T18:07:39.228Z,0.95
2022-08-10T18:10:10.162Z,0.70
2022-08-10T18:12:45.634Z,0.70
2022-08-10T18:15:17.243Z,0.60
2022-08-10T18:17:51.048Z,0.60
2022-08-10T18:20:28.128Z,0.75
2022-08-10T18:22:57.521Z,0.73
2022-08-10T18:25:30.455Z,0.95
2022-08-10T18:30:37.304Z,0.38
2022-08-10T18:35:38.788Z,0.55
2022-08-10T18:38:07.295Z,0.70
2022-08-10T18:40:37.103Z,0.77
2022-08-10T18:44:05.494Z,0.60
2022-08-10T18:45:58.937Z,0.77
2022-08-10T18:48:40.870Z,0.70
2022-08-10T18:51:09.955Z,0.82
2022-08-10T18:53:48.544Z,0.63
2022-08-10T18:56:29.086Z,1.10
2022-08-10T19:00:03.537Z,0.85
2022-08-10T19:02:48.706Z,0.65
2022-08-10T19:05:33.409Z,0.90
2022-08-10T19:08:31.611Z,0.70
2022-08-10T19:11:07.493Z,0.65
2022-08-10T19:14:15.202Z,0.93
2022-08-10T19:16:54.918Z,1.08
2022-08-10T19:19:55.679Z,0.75
2022-08-10T19:22:37.666Z,0.93
2022-08-10T19:25:12.028Z,1.05
2022-08-10T19:28:04.279Z,0.82
2022-08-10T19:30:56.276Z,1.10
2022-08-10T19:33:50.524Z,1.00
2022-08-10T19:36:45.308Z,0.95
2022-08-10T19:39:51.093Z,1.00
2022-08-10T19:42:49.649Z,0.82
2022-08-10T19:46:00.615Z,0.98
2022-08-10T19:48:30.199Z,0.88
2022-08-10T19:51:08.646Z,1.10
2022-08-10T19:54:06.700Z,1.45
2022-08-10T19:56:44.276Z,0.93
2022-08-10T20:00:18.042Z,0.80
2022-08-10T20:02:30.672Z,1.00
2022-08-10T20:05:11.489Z,1.25
2022-08-10T20:08:19.819Z,1.35
2022-08-10T20:11:44.798Z,0.90
2022-08-10T20:14:30.070Z,0.70
2022-08-10T20:17:51.470Z,0.82
2022-08-10T20:20:31.363Z,1.10
2022-08-10T20:23:25.378Z,0.70
2022-08-10T20:28:42.693Z,0.65
2022-08-10T20:31:43.925Z,1.10
2022-08-10T20:34:44.158Z,1.35
2022-08-10T20:38:27.496Z,0.90
2022-08-10T20:41:46.174Z,2.38
2022-08-10T20:44:24.194Z,1.27
2022-08-10T20:47:03.234Z,1.20
2022-08-10T20:50:08.037Z,0.95
2022-08-10T20:52:36.648Z,0.85
2022-08-10T20:55:08.999Z,1.10
2022-08-10T20:57:57.452Z,1.10
2022-08-10T21:00:48.571Z,1.40
2022-08-10T21:03:43.878Z,1.65
2022-08-10T21:06:49.173Z,1.38
2022-08-10T21:09:39.557Z,1.10
2022-08-10T21:12:24.093Z,1.10
2022-08-10T21:15:12.222Z,1.15
2022-08-10T21:18:22.348Z,1.00
2022-08-10T21:21:09.698Z,1.00
2022-08-10T21:23:48.730Z,1.10
2022-08-10T21:26:29.806Z,0.90
2022-08-10T21:28:59.441Z,1.23
2022-08-10T21:32:16.931Z,1.00
2022-08-10T21:35:36.634Z,1.30
2022-08-10T21:38:26.790Z,1.00
2022-08-10T21:41:17.192Z,1.40
2022-08-10T21:44:20.647Z,1.17
2022-08-10T21:48:06.515Z,0.90
2022-08-10T21:51:16.374Z,1.05
2022-08-10T21:54:22.533Z,1.20
2022-08-10T21:57:41.267Z,1.33
2022-08-10T22:00:33.371Z,1.27
2022-08-10T22:03:22.739Z,1.83
2022-08-10T22:06:12.226Z,1.20
2022-08-10T22:09:16.656Z,1.33
2022-08-10T22:12:10.241Z,1.45
2022-08-10T22:15:11.946Z,1.40
2022-08-10T22:18:05.918Z,1.48
2022-08-10T22:20:56.393Z,1.42
2022-08-10T22:23:41.753Z,1.42
2022-08-10T22:27:46.352Z,1.17
2022-08-10T22:30:23.144Z,1.02
2022-08-10T22:34:00.186Z,1.05
2022-08-10T22:37:16.662Z,1.00
2022-08-10T22:40:22.491Z,1.17
2022-08-10T22:43:13.181Z,1.23
2022-08-10T22:46:17.829Z,1.10
2022-08-10T22:49:00.440Z,1.42
2022-08-10T22:51:49.109Z,1.98
2022-08-10T22:54:52.215Z,1.48
2022-08-10T22:57:38.599Z,1.25
2022-08-10T23:00:31.247Z,1.77
2022-08-10T23:03:11.114Z,1.35
2022-08-10T23:06:11.509Z,1.20
2022-08-10T23:08:47.421Z,1.25
2022-08-10T23:11:30.124Z,1.20
2022-08-10T23:14:18.653Z,1.58
2022-08-10T23:17:11.837Z,1.42
2022-08-10T23:19:45.092Z,1.60
2022-08-10T23:22:15.437Z,1.58
2022-08-10T23:24:53.537Z,1.70
2022-08-10T23:27:38.055Z,1.70
2022-08-10T23:30:16.961Z,1.38
2022-08-10T23:32:48.305Z,1.60
2022-08-10T23:36:05.680Z,1.52
2022-08-10T23:38:08.663Z,1.50
2022-08-10T23:40:36.744Z,1.88
2022-08-10T23:43:05.225Z,1.17
2022-08-10T23:45:53.833Z,1.50
2022-08-10T23:48:25.509Z,1.30
2022-08-10T23:50:59.452Z,1.98
2022-08-10T23:53:31.812Z,1.45
2022-08-10T23:56:24.016Z,1.90
2022-08-10T23:58:55.763Z,1.40
